This is the latest recevied weather packets stored in our database for station/object K8FJG-13. If no packets are shown the sender has not sent any weather packets the latest 10 day(s).
| Time | Temp. | Humidity | Pressure | Rain* | Wind** | Luminosity | Snow |
|---|---|---|---|---|---|---|---|
| 1777999709 | 16.11° C | 72% | 963.4 hPa | - | - | - | - |
| 1777999106 | 17.22° C | 70% | 963.3 hPa | - | - | - | - |
| 1777998503 | 18.89° C | 64% | 963.1 hPa | - | - | - | - |
| 1777997900 | 20° C | 60% | 962.8 hPa | - | - | - | - |
| 1777997296 | 20° C | 60% | 962.9 hPa | - | - | - | - |
| 1777996693 | 20.56° C | 59% | 962.7 hPa | - | - | - | - |
| 1777996090 | 20° C | 59% | 962.6 hPa | - | - | - | - |
| 1777995487 | 20° C | 60% | 962.3 hPa | - | - | - | - |
| 1777994884 | 19.44° C | 61% | 962.2 hPa | - | - | - | - |
| 1777994281 | 18.89° C | 62% | 962.3 hPa | - | - | - | - |
| 1777993678 | 18.33° C | 65% | 962.4 hPa | - | - | - | - |
| 1777993074 | 17.78° C | 65% | 962.6 hPa | - | - | - | - |
| 1777992471 | 18.33° C | 66% | 962.6 hPa | - | - | - | - |
| 1777991868 | 18.33° C | 65% | 962.3 hPa | - | - | - | - |
| 1777991265 | 18.33° C | 65% | 961.9 hPa | - | - | - | - |
| 1777990662 | 18.33° C | 65% | 961.7 hPa | - | - | - | - |
| 1777990059 | 18.33° C | 67% | 961.8 hPa | - | - | - | - |
| 1777989455 | 17.78° C | 67% | 961.9 hPa | - | - | - | - |
| 1777988852 | 17.22° C | 70% | 961.9 hPa | - | - | - | - |
| 1777988249 | 16.67° C | 72% | 961.9 hPa | - | - | - | - |
| 1777987646 | 16.11° C | 72% | 961.6 hPa | - | - | - | - |
| 1777987043 | 16.11° C | 72% | 961.9 hPa | - | - | - | - |
| 1777986439 | 16.11° C | 72% | 961.8 hPa | - | - | - | - |
| 1777985835 | 16.11° C | 72% | 961.9 hPa | - | - | - | - |
| 1777985232 | 16.11° C | 71% | 961.8 hPa | - | - | - | - |
* Rain since midnight (hover to see other rain measurements)
** Current wind speed in m/s (hover to see current wind gust speed)